Terminal Aerodrome Forecast
Issued by NWS

Current Version | Previous Version | Text Only | Print | Product List | Glossary Off
Versions: 1 2 3 4 5 6 7 8 9 10 11 12 13 14 15

000
FTUS41 KILN 252324
TAFLCK
TAF
KLCK 252324Z 2600/2624 28012G18KT P6SM FEW070
     FM260100 27005KT P6SM SKC
     FM261400 27012G18KT P6SM SCT060
     FM262200 27012KT P6SM VCSH BKN060=

USA.gov is the U.S. government's official web portal to all federal, state and local government web resources and services.